sensor_id;sensor_type;location;lat;lon;timestamp;P1;durP1;ratioP1;P2;durP2;ratioP2
34317;SDS011;20582;52.196;20.952;2024-03-29T00:00:51;14.93;;;5.97;;
34317;SDS011;20582;52.196;20.952;2024-03-29T00:03:17;15.75;;;6.72;;
34317;SDS011;20582;52.196;20.952;2024-03-29T00:05:43;14.02;;;7.10;;
34317;SDS011;20582;52.196;20.952;2024-03-29T00:08:09;16.25;;;7.50;;
34317;SDS011;20582;52.196;20.952;2024-03-29T00:10:35;12.77;;;6.70;;
34317;SDS011;20582;52.196;20.952;2024-03-29T00:13:01;17.15;;;7.30;;
34317;SDS011;20582;52.196;20.952;2024-03-29T00:15:27;13.80;;;6.78;;
34317;SDS011;20582;52.196;20.952;2024-03-29T00:17:53;12.70;;;6.95;;
34317;SDS011;20582;52.196;20.952;2024-03-29T00:20:19;14.00;;;6.95;;
34317;SDS011;20582;52.196;20.952;2024-03-29T00:22:46;13.40;;;6.53;;
34317;SDS011;20582;52.196;20.952;2024-03-29T00:25:12;13.25;;;6.53;;
34317;SDS011;20582;52.196;20.952;2024-03-29T00:27:38;12.93;;;6.50;;
34317;SDS011;20582;52.196;20.952;2024-03-29T00:30:04;14.52;;;6.40;;
34317;SDS011;20582;52.196;20.952;2024-03-29T00:32:30;11.90;;;5.85;;
34317;SDS011;20582;52.196;20.952;2024-03-29T00:34:56;13.35;;;6.00;;
34317;SDS011;20582;52.196;20.952;2024-03-29T00:37:23;11.82;;;5.85;;
34317;SDS011;20582;52.196;20.952;2024-03-29T00:39:49;11.75;;;5.82;;
34317;SDS011;20582;52.196;20.952;2024-03-29T00:42:15;13.00;;;5.65;;
34317;SDS011;20582;52.196;20.952;2024-03-29T00:44:42;11.40;;;5.50;;
34317;SDS011;20582;52.196;20.952;2024-03-29T00:47:08;10.32;;;5.30;;
34317;SDS011;20582;52.196;20.952;2024-03-29T00:49:34;11.23;;;5.80;;
34317;SDS011;20582;52.196;20.952;2024-03-29T00:52:01;11.18;;;5.18;;
34317;SDS011;20582;52.196;20.952;2024-03-29T00:54:27;11.25;;;5.80;;
34317;SDS011;20582;52.196;20.952;2024-03-29T00:56:53;8.75;;;5.05;;
34317;SDS011;20582;52.196;20.952;2024-03-29T00:59:19;9.68;;;4.70;;
34317;SDS011;20582;52.196;20.952;2024-03-29T01:01:45;10.15;;;4.72;;
34317;SDS011;20582;52.196;20.952;2024-03-29T01:04:11;9.88;;;4.70;;
34317;SDS011;20582;52.196;20.952;2024-03-29T01:06:38;9.77;;;4.60;;
34317;SDS011;20582;52.196;20.952;2024-03-29T01:09:05;9.13;;;4.20;;
34317;SDS011;20582;52.196;20.952;2024-03-29T01:11:31;10.43;;;4.50;;
34317;SDS011;20582;52.196;20.952;2024-03-29T01:13:57;7.75;;;3.70;;
34317;SDS011;20582;52.196;20.952;2024-03-29T01:16:23;6.85;;;3.47;;
34317;SDS011;20582;52.196;20.952;2024-03-29T01:18:49;8.77;;;3.53;;
34317;SDS011;20582;52.196;20.952;2024-03-29T01:21:17;7.60;;;3.50;;
34317;SDS011;20582;52.196;20.952;2024-03-29T01:23:43;8.20;;;3.80;;
34317;SDS011;20582;52.196;20.952;2024-03-29T01:26:09;8.35;;;3.90;;
34317;SDS011;20582;52.196;20.952;2024-03-29T01:28:39;7.95;;;3.95;;
34317;SDS011;20582;52.196;20.952;2024-03-29T01:31:05;7.93;;;3.75;;
34317;SDS011;20582;52.196;20.952;2024-03-29T01:33:31;7.55;;;3.78;;
34317;SDS011;20582;52.196;20.952;2024-03-29T01:36:01;7.95;;;3.42;;
34317;SDS011;20582;52.196;20.952;2024-03-29T01:38:27;7.40;;;3.17;;
34317;SDS011;20582;52.196;20.952;2024-03-29T01:40:53;7.20;;;3.28;;
34317;SDS011;20582;52.196;20.952;2024-03-29T01:43:19;8.15;;;3.30;;
34317;SDS011;20582;52.196;20.952;2024-03-29T01:45:47;8.90;;;3.40;;
34317;SDS011;20582;52.196;20.952;2024-03-29T01:48:13;6.22;;;3.13;;
34317;SDS011;20582;52.196;20.952;2024-03-29T01:50:40;5.82;;;3.17;;
34317;SDS011;20582;52.196;20.952;2024-03-29T01:53:07;9.80;;;3.33;;
34317;SDS011;20582;52.196;20.952;2024-03-29T01:55:34;8.02;;;2.92;;
34317;SDS011;20582;52.196;20.952;2024-03-29T01:58:00;6.43;;;2.80;;
34317;SDS011;20582;52.196;20.952;2024-03-29T02:00:27;6.78;;;2.83;;
34317;SDS011;20582;52.196;20.952;2024-03-29T02:02:53;7.75;;;3.20;;
34317;SDS011;20582;52.196;20.952;2024-03-29T02:05:19;6.20;;;3.00;;
34317;SDS011;20582;52.196;20.952;2024-03-29T02:07:45;5.70;;;2.78;;
34317;SDS011;20582;52.196;20.952;2024-03-29T02:10:13;6.45;;;3.03;;
34317;SDS011;20582;52.196;20.952;2024-03-29T02:12:39;5.50;;;2.65;;
34317;SDS011;20582;52.196;20.952;2024-03-29T02:15:06;4.95;;;2.80;;
34317;SDS011;20582;52.196;20.952;2024-03-29T02:17:32;7.50;;;2.72;;
34317;SDS011;20582;52.196;20.952;2024-03-29T02:19:58;7.30;;;3.05;;
34317;SDS011;20582;52.196;20.952;2024-03-29T02:22:24;5.80;;;3.15;;
34317;SDS011;20582;52.196;20.952;2024-03-29T02:24:51;6.53;;;2.95;;
34317;SDS011;20582;52.196;20.952;2024-03-29T02:27:17;6.50;;;3.08;;
34317;SDS011;20582;52.196;20.952;2024-03-29T02:29:43;6.30;;;2.55;;
34317;SDS011;20582;52.196;20.952;2024-03-29T02:32:09;6.28;;;3.03;;
34317;SDS011;20582;52.196;20.952;2024-03-29T02:34:35;6.38;;;2.40;;
34317;SDS011;20582;52.196;20.952;2024-03-29T02:37:01;5.90;;;2.78;;
34317;SDS011;20582;52.196;20.952;2024-03-29T02:39:27;6.95;;;3.25;;
34317;SDS011;20582;52.196;20.952;2024-03-29T02:41:53;6.25;;;2.88;;
34317;SDS011;20582;52.196;20.952;2024-03-29T02:44:19;5.60;;;2.92;;
34317;SDS011;20582;52.196;20.952;2024-03-29T02:46:45;5.53;;;2.65;;
34317;SDS011;20582;52.196;20.952;2024-03-29T02:49:11;5.45;;;2.70;;
34317;SDS011;20582;52.196;20.952;2024-03-29T02:51:37;5.97;;;2.80;;
34317;SDS011;20582;52.196;20.952;2024-03-29T02:54:03;6.80;;;2.90;;
34317;SDS011;20582;52.196;20.952;2024-03-29T02:56:29;5.95;;;3.03;;
34317;SDS011;20582;52.196;20.952;2024-03-29T02:58:55;9.05;;;3.13;;
34317;SDS011;20582;52.196;20.952;2024-03-29T03:01:21;6.78;;;3.00;;
34317;SDS011;20582;52.196;20.952;2024-03-29T03:03:47;7.53;;;3.53;;
34317;SDS011;20582;52.196;20.952;2024-03-29T03:06:13;6.78;;;3.22;;
34317;SDS011;20582;52.196;20.952;2024-03-29T03:08:39;8.52;;;3.25;;
34317;SDS011;20582;52.196;20.952;2024-03-29T03:11:24;6.53;;;2.83;;
34317;SDS011;20582;52.196;20.952;2024-03-29T03:13:50;7.68;;;2.97;;
34317;SDS011;20582;52.196;20.952;2024-03-29T03:16:16;12.10;;;3.50;;
34317;SDS011;20582;52.196;20.952;2024-03-29T03:18:42;8.75;;;3.03;;
34317;SDS011;20582;52.196;20.952;2024-03-29T03:21:08;6.45;;;2.85;;
34317;SDS011;20582;52.196;20.952;2024-03-29T03:23:33;6.65;;;3.20;;
34317;SDS011;20582;52.196;20.952;2024-03-29T03:26:00;8.40;;;3.30;;
34317;SDS011;20582;52.196;20.952;2024-03-29T03:28:28;7.38;;;3.13;;
34317;SDS011;20582;52.196;20.952;2024-03-29T03:30:54;7.68;;;3.20;;
34317;SDS011;20582;52.196;20.952;2024-03-29T03:33:21;6.88;;;2.80;;
34317;SDS011;20582;52.196;20.952;2024-03-29T03:35:47;6.82;;;3.10;;
34317;SDS011;20582;52.196;20.952;2024-03-29T03:38:13;6.00;;;2.90;;
34317;SDS011;20582;52.196;20.952;2024-03-29T03:40:40;7.32;;;3.20;;
34317;SDS011;20582;52.196;20.952;2024-03-29T03:43:06;6.95;;;3.08;;
34317;SDS011;20582;52.196;20.952;2024-03-29T03:45:36;8.02;;;3.10;;
34317;SDS011;20582;52.196;20.952;2024-03-29T03:48:03;6.60;;;2.83;;
34317;SDS011;20582;52.196;20.952;2024-03-29T03:50:29;7.10;;;2.90;;
34317;SDS011;20582;52.196;20.952;2024-03-29T03:52:55;7.03;;;3.10;;
34317;SDS011;20582;52.196;20.952;2024-03-29T03:55:21;6.75;;;3.17;;
34317;SDS011;20582;52.196;20.952;2024-03-29T03:57:47;6.78;;;3.10;;
34317;SDS011;20582;52.196;20.952;2024-03-29T04:00:13;5.40;;;2.90;;
34317;SDS011;20582;52.196;20.952;2024-03-29T04:02:39;5.95;;;3.03;;
34317;SDS011;20582;52.196;20.952;2024-03-29T04:05:06;6.32;;;2.85;;
34317;SDS011;20582;52.196;20.952;2024-03-29T04:07:32;6.28;;;2.92;;
34317;SDS011;20582;52.196;20.952;2024-03-29T04:09:58;6.95;;;3.08;;
34317;SDS011;20582;52.196;20.952;2024-03-29T04:12:24;8.45;;;3.25;;
34317;SDS011;20582;52.196;20.952;2024-03-29T04:14:50;7.65;;;2.85;;
34317;SDS011;20582;52.196;20.952;2024-03-29T04:17:16;7.35;;;3.03;;
34317;SDS011;20582;52.196;20.952;2024-03-29T04:19:41;6.07;;;2.97;;
34317;SDS011;20582;52.196;20.952;2024-03-29T04:22:07;6.07;;;3.03;;
34317;SDS011;20582;52.196;20.952;2024-03-29T04:24:33;6.82;;;2.80;;
34317;SDS011;20582;52.196;20.952;2024-03-29T04:26:59;9.07;;;3.35;;
34317;SDS011;20582;52.196;20.952;2024-03-29T04:29:25;8.65;;;3.20;;
34317;SDS011;20582;52.196;20.952;2024-03-29T04:31:52;8.10;;;3.13;;
34317;SDS011;20582;52.196;20.952;2024-03-29T04:34:18;5.38;;;2.78;;
34317;SDS011;20582;52.196;20.952;2024-03-29T04:36:44;6.00;;;2.97;;
34317;SDS011;20582;52.196;20.952;2024-03-29T04:39:10;6.38;;;2.88;;
34317;SDS011;20582;52.196;20.952;2024-03-29T04:41:36;6.93;;;3.10;;
34317;SDS011;20582;52.196;20.952;2024-03-29T04:44:02;8.18;;;2.63;;
34317;SDS011;20582;52.196;20.952;2024-03-29T04:46:30;8.07;;;3.10;;
34317;SDS011;20582;52.196;20.952;2024-03-29T04:48:57;9.02;;;3.60;;
34317;SDS011;20582;52.196;20.952;2024-03-29T04:51:23;8.38;;;3.17;;
34317;SDS011;20582;52.196;20.952;2024-03-29T04:53:49;5.97;;;3.40;;
34317;SDS011;20582;52.196;20.952;2024-03-29T04:56:15;8.10;;;3.50;;
34317;SDS011;20582;52.196;20.952;2024-03-29T04:58:42;8.93;;;3.70;;
34317;SDS011;20582;52.196;20.952;2024-03-29T05:01:08;6.93;;;3.42;;
34317;SDS011;20582;52.196;20.952;2024-03-29T05:03:34;8.07;;;3.42;;
34317;SDS011;20582;52.196;20.952;2024-03-29T05:06:00;7.57;;;3.53;;
34317;SDS011;20582;52.196;20.952;2024-03-29T05:08:26;8.00;;;3.58;;
34317;SDS011;20582;52.196;20.952;2024-03-29T05:10:52;8.50;;;3.78;;
34317;SDS011;20582;52.196;20.952;2024-03-29T05:13:18;6.15;;;3.08;;
34317;SDS011;20582;52.196;20.952;2024-03-29T05:15:45;8.02;;;3.40;;
34317;SDS011;20582;52.196;20.952;2024-03-29T05:18:12;7.90;;;3.22;;
34317;SDS011;20582;52.196;20.952;2024-03-29T05:20:38;7.35;;;3.13;;
34317;SDS011;20582;52.196;20.952;2024-03-29T05:23:12;10.95;;;3.42;;
34317;SDS011;20582;52.196;20.952;2024-03-29T05:25:39;6.20;;;3.05;;
34317;SDS011;20582;52.196;20.952;2024-03-29T05:28:05;7.35;;;3.63;;
34317;SDS011;20582;52.196;20.952;2024-03-29T05:30:32;7.25;;;2.90;;
34317;SDS011;20582;52.196;20.952;2024-03-29T05:32:59;7.30;;;3.10;;
34317;SDS011;20582;52.196;20.952;2024-03-29T05:35:25;7.78;;;3.45;;
34317;SDS011;20582;52.196;20.952;2024-03-29T05:37:51;5.95;;;2.85;;
34317;SDS011;20582;52.196;20.952;2024-03-29T05:40:19;7.75;;;3.30;;
34317;SDS011;20582;52.196;20.952;2024-03-29T05:42:50;8.05;;;2.92;;
34317;SDS011;20582;52.196;20.952;2024-03-29T05:45:24;6.18;;;3.10;;
34317;SDS011;20582;52.196;20.952;2024-03-29T05:47:51;8.82;;;3.00;;
34317;SDS011;20582;52.196;20.952;2024-03-29T05:50:17;7.70;;;3.10;;
34317;SDS011;20582;52.196;20.952;2024-03-29T05:52:43;6.90;;;3.17;;
34317;SDS011;20582;52.196;20.952;2024-03-29T05:55:09;7.43;;;2.90;;
34317;SDS011;20582;52.196;20.952;2024-03-29T05:57:35;7.95;;;3.15;;
34317;SDS011;20582;52.196;20.952;2024-03-29T06:02:32;8.77;;;3.22;;
34317;SDS011;20582;52.196;20.952;2024-03-29T06:04:57;6.55;;;3.30;;
34317;SDS011;20582;52.196;20.952;2024-03-29T06:07:24;8.82;;;3.20;;
34317;SDS011;20582;52.196;20.952;2024-03-29T06:09:49;6.03;;;2.97;;
34317;SDS011;20582;52.196;20.952;2024-03-29T06:12:15;6.32;;;3.22;;
34317;SDS011;20582;52.196;20.952;2024-03-29T06:14:41;7.50;;;3.40;;
34317;SDS011;20582;52.196;20.952;2024-03-29T06:17:26;11.70;;;3.70;;
34317;SDS011;20582;52.196;20.952;2024-03-29T06:19:53;7.15;;;3.30;;
34317;SDS011;20582;52.196;20.952;2024-03-29T06:22:23;9.70;;;3.35;;
34317;SDS011;20582;52.196;20.952;2024-03-29T06:24:50;11.30;;;3.45;;
34317;SDS011;20582;52.196;20.952;2024-03-29T06:27:19;6.50;;;3.20;;
34317;SDS011;20582;52.196;20.952;2024-03-29T06:29:47;8.00;;;3.50;;
34317;SDS011;20582;52.196;20.952;2024-03-29T06:32:13;7.47;;;3.08;;
34317;SDS011;20582;52.196;20.952;2024-03-29T06:34:41;7.72;;;3.13;;
34317;SDS011;20582;52.196;20.952;2024-03-29T06:37:07;7.15;;;3.05;;
34317;SDS011;20582;52.196;20.952;2024-03-29T06:39:33;8.65;;;3.10;;
34317;SDS011;20582;52.196;20.952;2024-03-29T06:41:59;9.73;;;3.08;;
34317;SDS011;20582;52.196;20.952;2024-03-29T06:44:25;7.68;;;3.17;;
34317;SDS011;20582;52.196;20.952;2024-03-29T06:46:51;7.38;;;2.92;;
34317;SDS011;20582;52.196;20.952;2024-03-29T06:49:17;12.20;;;2.92;;
34317;SDS011;20582;52.196;20.952;2024-03-29T06:51:43;6.43;;;2.75;;
34317;SDS011;20582;52.196;20.952;2024-03-29T06:54:09;6.90;;;3.33;;
34317;SDS011;20582;52.196;20.952;2024-03-29T06:56:35;7.20;;;2.80;;
34317;SDS011;20582;52.196;20.952;2024-03-29T06:59:01;6.57;;;2.70;;
34317;SDS011;20582;52.196;20.952;2024-03-29T07:01:27;7.70;;;3.00;;
34317;SDS011;20582;52.196;20.952;2024-03-29T07:03:53;6.45;;;2.78;;
34317;SDS011;20582;52.196;20.952;2024-03-29T07:06:19;8.43;;;2.70;;
34317;SDS011;20582;52.196;20.952;2024-03-29T07:08:45;5.07;;;2.30;;
34317;SDS011;20582;52.196;20.952;2024-03-29T07:11:12;7.32;;;2.70;;
34317;SDS011;20582;52.196;20.952;2024-03-29T07:13:38;4.57;;;2.30;;
34317;SDS011;20582;52.196;20.952;2024-03-29T07:16:04;7.80;;;3.00;;
34317;SDS011;20582;52.196;20.952;2024-03-29T07:18:31;7.65;;;2.75;;
34317;SDS011;20582;52.196;20.952;2024-03-29T07:20:57;6.85;;;2.50;;
34317;SDS011;20582;52.196;20.952;2024-03-29T07:23:23;8.50;;;2.47;;
34317;SDS011;20582;52.196;20.952;2024-03-29T07:26:02;6.28;;;2.53;;
34317;SDS011;20582;52.196;20.952;2024-03-29T07:28:29;5.35;;;2.22;;
34317;SDS011;20582;52.196;20.952;2024-03-29T07:30:55;4.95;;;2.20;;
34317;SDS011;20582;52.196;20.952;2024-03-29T07:33:22;7.57;;;2.50;;
34317;SDS011;20582;52.196;20.952;2024-03-29T07:35:54;6.53;;;2.30;;
34317;SDS011;20582;52.196;20.952;2024-03-29T07:38:20;6.47;;;2.40;;
34317;SDS011;20582;52.196;20.952;2024-03-29T07:40:47;5.97;;;2.40;;
34317;SDS011;20582;52.196;20.952;2024-03-29T07:43:13;13.40;;;2.60;;
34317;SDS011;20582;52.196;20.952;2024-03-29T07:45:42;4.65;;;2.17;;
34317;SDS011;20582;52.196;20.952;2024-03-29T07:48:16;4.63;;;2.17;;
34317;SDS011;20582;52.196;20.952;2024-03-29T07:50:42;4.15;;;2.05;;
34317;SDS011;20582;52.196;20.952;2024-03-29T07:53:08;25.48;;;4.60;;
34317;SDS011;20582;52.196;20.952;2024-03-29T07:55:35;4.65;;;2.03;;
34317;SDS011;20582;52.196;20.952;2024-03-29T07:58:01;4.47;;;1.90;;
34317;SDS011;20582;52.196;20.952;2024-03-29T08:00:30;4.35;;;2.08;;
34317;SDS011;20582;52.196;20.952;2024-03-29T08:02:56;6.18;;;1.85;;
34317;SDS011;20582;52.196;20.952;2024-03-29T08:05:22;3.63;;;1.38;;
34317;SDS011;20582;52.196;20.952;2024-03-29T08:07:49;3.03;;;1.58;;
34317;SDS011;20582;52.196;20.952;2024-03-29T08:10:14;3.45;;;1.40;;
34317;SDS011;20582;52.196;20.952;2024-03-29T08:12:40;4.60;;;2.03;;
34317;SDS011;20582;52.196;20.952;2024-03-29T08:15:06;5.55;;;1.67;;
34317;SDS011;20582;52.196;20.952;2024-03-29T08:17:33;8.48;;;2.75;;
34317;SDS011;20582;52.196;20.952;2024-03-29T08:20:00;2.92;;;1.55;;
34317;SDS011;20582;52.196;20.952;2024-03-29T08:22:26;3.80;;;1.40;;
34317;SDS011;20582;52.196;20.952;2024-03-29T08:24:55;5.50;;;1.80;;
34317;SDS011;20582;52.196;20.952;2024-03-29T08:27:22;4.13;;;1.77;;
34317;SDS011;20582;52.196;20.952;2024-03-29T08:29:49;5.47;;;1.92;;
34317;SDS011;20582;52.196;20.952;2024-03-29T08:32:15;5.20;;;2.00;;
34317;SDS011;20582;52.196;20.952;2024-03-29T08:34:41;5.20;;;1.75;;
34317;SDS011;20582;52.196;20.952;2024-03-29T08:37:07;7.93;;;1.95;;
34317;SDS011;20582;52.196;20.952;2024-03-29T08:39:33;7.30;;;2.00;;
34317;SDS011;20582;52.196;20.952;2024-03-29T08:42:00;5.50;;;1.77;;
34317;SDS011;20582;52.196;20.952;2024-03-29T08:44:36;5.70;;;1.80;;
34317;SDS011;20582;52.196;20.952;2024-03-29T08:47:02;5.65;;;1.90;;
34317;SDS011;20582;52.196;20.952;2024-03-29T08:49:28;4.93;;;1.50;;
34317;SDS011;20582;52.196;20.952;2024-03-29T08:51:54;6.63;;;2.20;;
34317;SDS011;20582;52.196;20.952;2024-03-29T08:54:20;4.20;;;1.83;;
34317;SDS011;20582;52.196;20.952;2024-03-29T08:56:47;4.80;;;1.70;;
34317;SDS011;20582;52.196;20.952;2024-03-29T08:59:13;6.43;;;1.77;;
34317;SDS011;20582;52.196;20.952;2024-03-29T09:01:41;6.05;;;1.77;;
34317;SDS011;20582;52.196;20.952;2024-03-29T09:04:09;3.95;;;1.67;;
34317;SDS011;20582;52.196;20.952;2024-03-29T09:06:36;7.32;;;2.67;;
34317;SDS011;20582;52.196;20.952;2024-03-29T09:09:05;4.75;;;1.85;;
34317;SDS011;20582;52.196;20.952;2024-03-29T09:11:31;5.38;;;2.38;;
34317;SDS011;20582;52.196;20.952;2024-03-29T09:13:57;6.38;;;2.33;;
34317;SDS011;20582;52.196;20.952;2024-03-29T09:16:24;6.00;;;2.38;;
34317;SDS011;20582;52.196;20.952;2024-03-29T09:18:50;6.15;;;2.17;;
34317;SDS011;20582;52.196;20.952;2024-03-29T09:21:17;7.15;;;2.30;;
34317;SDS011;20582;52.196;20.952;2024-03-29T09:23:47;6.85;;;2.42;;
34317;SDS011;20582;52.196;20.952;2024-03-29T09:26:18;5.40;;;2.17;;
34317;SDS011;20582;52.196;20.952;2024-03-29T09:28:44;4.55;;;2.28;;
34317;SDS011;20582;52.196;20.952;2024-03-29T09:31:10;5.95;;;1.80;;
34317;SDS011;20582;52.196;20.952;2024-03-29T09:33:36;5.00;;;1.85;;
34317;SDS011;20582;52.196;20.952;2024-03-29T09:36:02;4.82;;;2.13;;
34317;SDS011;20582;52.196;20.952;2024-03-29T09:38:28;5.10;;;2.00;;
34317;SDS011;20582;52.196;20.952;2024-03-29T09:41:28;7.57;;;2.30;;
34317;SDS011;20582;52.196;20.952;2024-03-29T09:43:47;4.65;;;2.10;;
34317;SDS011;20582;52.196;20.952;2024-03-29T09:46:14;5.72;;;2.30;;
34317;SDS011;20582;52.196;20.952;2024-03-29T09:48:40;4.75;;;2.60;;
34317;SDS011;20582;52.196;20.952;2024-03-29T09:51:08;4.85;;;2.03;;
34317;SDS011;20582;52.196;20.952;2024-03-29T09:53:35;4.88;;;1.90;;
34317;SDS011;20582;52.196;20.952;2024-03-29T09:56:02;7.47;;;2.63;;
34317;SDS011;20582;52.196;20.952;2024-03-29T09:58:29;6.60;;;2.00;;
34317;SDS011;20582;52.196;20.952;2024-03-29T10:01:01;5.60;;;2.40;;
34317;SDS011;20582;52.196;20.952;2024-03-29T10:03:28;4.85;;;2.30;;
34317;SDS011;20582;52.196;20.952;2024-03-29T10:05:58;5.00;;;2.30;;
34317;SDS011;20582;52.196;20.952;2024-03-29T10:08:25;5.07;;;2.03;;
34317;SDS011;20582;52.196;20.952;2024-03-29T10:10:52;6.05;;;2.30;;
34317;SDS011;20582;52.196;20.952;2024-03-29T10:13:18;6.90;;;2.25;;
34317;SDS011;20582;52.196;20.952;2024-03-29T10:15:44;9.05;;;2.28;;
34317;SDS011;20582;52.196;20.952;2024-03-29T10:18:14;4.68;;;2.20;;
34317;SDS011;20582;52.196;20.952;2024-03-29T10:20:40;3.97;;;2.15;;
34317;SDS011;20582;52.196;20.952;2024-03-29T10:23:06;5.35;;;1.92;;
34317;SDS011;20582;52.196;20.952;2024-03-29T10:25:33;4.38;;;1.98;;
34317;SDS011;20582;52.196;20.952;2024-03-29T10:27:59;7.45;;;2.00;;
34317;SDS011;20582;52.196;20.952;2024-03-29T10:30:29;4.72;;;1.85;;
34317;SDS011;20582;52.196;20.952;2024-03-29T10:32:56;3.47;;;1.42;;
34317;SDS011;20582;52.196;20.952;2024-03-29T10:35:22;4.88;;;2.00;;
34317;SDS011;20582;52.196;20.952;2024-03-29T10:37:51;3.03;;;1.55;;
34317;SDS011;20582;52.196;20.952;2024-03-29T10:40:17;5.28;;;1.65;;
34317;SDS011;20582;52.196;20.952;2024-03-29T10:42:44;2.85;;;1.50;;
34317;SDS011;20582;52.196;20.952;2024-03-29T10:45:13;3.05;;;1.60;;
34317;SDS011;20582;52.196;20.952;2024-03-29T10:47:40;3.92;;;1.73;;
34317;SDS011;20582;52.196;20.952;2024-03-29T10:50:12;4.65;;;1.52;;
34317;SDS011;20582;52.196;20.952;2024-03-29T10:52:41;3.42;;;1.50;;
34317;SDS011;20582;52.196;20.952;2024-03-29T10:55:11;4.43;;;1.70;;
34317;SDS011;20582;52.196;20.952;2024-03-29T10:57:41;4.18;;;1.60;;
34317;SDS011;20582;52.196;20.952;2024-03-29T11:00:11;4.00;;;1.35;;
34317;SDS011;20582;52.196;20.952;2024-03-29T11:05:28;5.00;;;1.30;;
34317;SDS011;20582;52.196;20.952;2024-03-29T11:07:54;4.43;;;1.63;;
34317;SDS011;20582;52.196;20.952;2024-03-29T11:10:25;5.70;;;2.08;;
34317;SDS011;20582;52.196;20.952;2024-03-29T11:15:32;5.75;;;1.90;;
34317;SDS011;20582;52.196;20.952;2024-03-29T11:18:00;4.28;;;1.50;;
34317;SDS011;20582;52.196;20.952;2024-03-29T11:20:29;4.13;;;1.70;;
34317;SDS011;20582;52.196;20.952;2024-03-29T11:23:06;4.00;;;1.60;;
34317;SDS011;20582;52.196;20.952;2024-03-29T11:28:07;6.22;;;1.92;;
34317;SDS011;20582;52.196;20.952;2024-03-29T11:31:08;3.20;;;1.30;;
34317;SDS011;20582;52.196;20.952;2024-03-29T11:38:39;4.45;;;1.70;;
34317;SDS011;20582;52.196;20.952;2024-03-29T11:41:11;3.60;;;1.33;;
34317;SDS011;20582;52.196;20.952;2024-03-29T11:43:41;4.57;;;1.70;;
34317;SDS011;20582;52.196;20.952;2024-03-29T11:46:12;5.47;;;1.65;;
34317;SDS011;20582;52.196;20.952;2024-03-29T11:48:38;4.60;;;1.40;;
34317;SDS011;20582;52.196;20.952;2024-03-29T11:51:05;4.30;;;1.92;;
34317;SDS011;20582;52.196;20.952;2024-03-29T11:53:33;2.97;;;1.38;;
34317;SDS011;20582;52.196;20.952;2024-03-29T11:56:02;6.90;;;3.67;;
34317;SDS011;20582;52.196;20.952;2024-03-29T11:58:28;9.05;;;4.95;;
34317;SDS011;20582;52.196;20.952;2024-03-29T12:00:55;4.35;;;1.50;;
34317;SDS011;20582;52.196;20.952;2024-03-29T12:03:23;5.15;;;2.60;;
34317;SDS011;20582;52.196;20.952;2024-03-29T12:05:49;3.85;;;1.70;;
34317;SDS011;20582;52.196;20.952;2024-03-29T12:08:16;4.88;;;2.05;;
34317;SDS011;20582;52.196;20.952;2024-03-29T12:10:42;4.00;;;1.73;;
34317;SDS011;20582;52.196;20.952;2024-03-29T12:13:09;5.00;;;2.10;;
34317;SDS011;20582;52.196;20.952;2024-03-29T12:15:35;4.43;;;1.58;;
34317;SDS011;20582;52.196;20.952;2024-03-29T12:18:02;4.82;;;1.90;;
34317;SDS011;20582;52.196;20.952;2024-03-29T12:20:30;5.68;;;1.65;;
34317;SDS011;20582;52.196;20.952;2024-03-29T12:23:00;4.72;;;1.88;;
34317;SDS011;20582;52.196;20.952;2024-03-29T12:25:26;3.53;;;1.70;;
34317;SDS011;20582;52.196;20.952;2024-03-29T12:27:53;3.35;;;1.65;;
34317;SDS011;20582;52.196;20.952;2024-03-29T12:30:19;3.85;;;1.90;;
34317;SDS011;20582;52.196;20.952;2024-03-29T12:32:45;7.72;;;1.90;;
34317;SDS011;20582;52.196;20.952;2024-03-29T12:35:12;4.55;;;1.65;;
34317;SDS011;20582;52.196;20.952;2024-03-29T12:37:38;3.58;;;1.60;;
34317;SDS011;20582;52.196;20.952;2024-03-29T12:40:13;3.40;;;1.77;;
34317;SDS011;20582;52.196;20.952;2024-03-29T12:42:43;4.78;;;2.05;;
34317;SDS011;20582;52.196;20.952;2024-03-29T12:45:09;5.70;;;2.00;;
34317;SDS011;20582;52.196;20.952;2024-03-29T12:47:36;4.45;;;1.60;;
34317;SDS011;20582;52.196;20.952;2024-03-29T12:50:02;2.65;;;1.30;;
34317;SDS011;20582;52.196;20.952;2024-03-29T12:52:39;4.53;;;1.60;;
34317;SDS011;20582;52.196;20.952;2024-03-29T12:55:05;3.65;;;1.60;;
34317;SDS011;20582;52.196;20.952;2024-03-29T12:57:33;4.22;;;1.58;;
34317;SDS011;20582;52.196;20.952;2024-03-29T12:59:59;5.60;;;1.65;;
34317;SDS011;20582;52.196;20.952;2024-03-29T13:02:26;6.43;;;1.80;;
34317;SDS011;20582;52.196;20.952;2024-03-29T13:04:52;6.60;;;1.75;;
34317;SDS011;20582;52.196;20.952;2024-03-29T13:07:17;5.25;;;1.65;;
34317;SDS011;20582;52.196;20.952;2024-03-29T13:09:43;5.80;;;1.67;;
34317;SDS011;20582;52.196;20.952;2024-03-29T13:12:09;4.25;;;1.35;;
34317;SDS011;20582;52.196;20.952;2024-03-29T13:14:37;2.53;;;1.40;;
34317;SDS011;20582;52.196;20.952;2024-03-29T13:17:03;4.40;;;1.85;;
34317;SDS011;20582;52.196;20.952;2024-03-29T13:19:29;3.60;;;1.60;;
34317;SDS011;20582;52.196;20.952;2024-03-29T13:21:55;5.07;;;1.40;;
34317;SDS011;20582;52.196;20.952;2024-03-29T13:24:21;4.50;;;1.52;;
34317;SDS011;20582;52.196;20.952;2024-03-29T13:26:47;2.33;;;1.30;;
34317;SDS011;20582;52.196;20.952;2024-03-29T13:29:13;2.95;;;1.40;;
34317;SDS011;20582;52.196;20.952;2024-03-29T13:31:40;3.50;;;1.30;;
34317;SDS011;20582;52.196;20.952;2024-03-29T13:34:06;5.00;;;1.63;;
34317;SDS011;20582;52.196;20.952;2024-03-29T13:36:41;4.47;;;1.65;;
34317;SDS011;20582;52.196;20.952;2024-03-29T13:39:07;7.78;;;2.45;;
34317;SDS011;20582;52.196;20.952;2024-03-29T13:41:34;3.38;;;1.60;;
34317;SDS011;20582;52.196;20.952;2024-03-29T13:44:00;3.65;;;1.38;;
34317;SDS011;20582;52.196;20.952;2024-03-29T13:46:33;3.13;;;1.40;;
34317;SDS011;20582;52.196;20.952;2024-03-29T13:49:00;2.88;;;1.10;;
34317;SDS011;20582;52.196;20.952;2024-03-29T13:51:26;5.97;;;1.50;;
34317;SDS011;20582;52.196;20.952;2024-03-29T13:53:52;6.07;;;1.25;;
34317;SDS011;20582;52.196;20.952;2024-03-29T13:56:21;2.33;;;1.20;;
34317;SDS011;20582;52.196;20.952;2024-03-29T13:58:47;4.32;;;1.23;;
34317;SDS011;20582;52.196;20.952;2024-03-29T14:01:13;4.68;;;1.40;;
34317;SDS011;20582;52.196;20.952;2024-03-29T14:03:39;3.83;;;1.45;;
34317;SDS011;20582;52.196;20.952;2024-03-29T14:06:05;3.30;;;1.10;;
34317;SDS011;20582;52.196;20.952;2024-03-29T14:08:32;2.85;;;1.20;;
34317;SDS011;20582;52.196;20.952;2024-03-29T14:10:58;2.75;;;1.02;;
34317;SDS011;20582;52.196;20.952;2024-03-29T14:13:25;2.38;;;1.00;;
34317;SDS011;20582;52.196;20.952;2024-03-29T14:15:51;2.25;;;1.05;;
34317;SDS011;20582;52.196;20.952;2024-03-29T14:18:17;1.88;;;1.10;;
34317;SDS011;20582;52.196;20.952;2024-03-29T14:20:43;3.08;;;1.40;;
34317;SDS011;20582;52.196;20.952;2024-03-29T14:23:09;3.08;;;1.20;;
34317;SDS011;20582;52.196;20.952;2024-03-29T14:25:37;2.28;;;0.88;;
34317;SDS011;20582;52.196;20.952;2024-03-29T14:28:03;2.42;;;0.88;;
34317;SDS011;20582;52.196;20.952;2024-03-29T14:30:30;3.80;;;1.00;;
34317;SDS011;20582;52.196;20.952;2024-03-29T14:32:56;2.85;;;1.10;;
34317;SDS011;20582;52.196;20.952;2024-03-29T14:35:22;3.47;;;1.10;;
34317;SDS011;20582;52.196;20.952;2024-03-29T14:37:49;3.35;;;1.02;;
34317;SDS011;20582;52.196;20.952;2024-03-29T14:40:15;3.63;;;1.27;;
34317;SDS011;20582;52.196;20.952;2024-03-29T14:42:44;2.80;;;1.00;;
34317;SDS011;20582;52.196;20.952;2024-03-29T14:45:10;3.67;;;1.15;;
34317;SDS011;20582;52.196;20.952;2024-03-29T14:47:40;7.20;;;1.63;;